Time;durP1;ratioP1;P1;durP2;ratioP2;P2;SDS_P1;SDS_P2;PMS_P1;PMS_P2;Temp;Humidity;BMP_temperature;BMP_pressure;BME280_temperature;BME280_humidity;BME280_pressure;Samples;Min_cycle;Max_cycle;Signal;HPM_P1;HPM_P2
2023/12/25 00:01:58;;;;;;;2.30;0.93;;;10.20;99.90;;;;;;5071505;28;20425;-73
2023/12/25 00:04:24;;;;;;;1.43;0.60;;;10.20;99.90;;;;;;5071251;28;20409;-72
2023/12/25 00:06:49;;;;;;;1.93;0.70;;;10.10;99.90;;;;;;5069569;28;20822;-72
2023/12/25 00:09:18;;;;;;;0.90;0.60;;;10.10;99.90;;;;;;5071316;28;20177;-72
2023/12/25 00:11:43;;;;;;;3.00;0.77;;;10.10;99.90;;;;;;5071218;28;20531;-73
2023/12/25 00:14:09;;;;;;;0.90;0.60;;;10.10;99.90;;;;;;5069420;28;21204;-74
2023/12/25 00:16:35;;;;;;;1.50;0.70;;;10.10;99.90;;;;;;5070901;28;20318;-73
2023/12/25 00:19:00;;;;;;;1.77;0.80;;;10.00;99.90;;;;;;5071188;28;20190;-73
2023/12/25 00:21:26;;;;;;;0.90;0.60;;;10.00;99.90;;;;;;5069468;28;20271;-73
2023/12/25 00:23:53;;;;;;;1.83;0.60;;;10.00;99.90;;;;;;5069719;28;20214;-72
2023/12/25 00:26:19;;;;;;;2.23;0.50;;;9.90;99.90;;;;;;5069955;28;20543;-73
2023/12/25 00:28:44;;;;;;;1.00;0.60;;;9.90;99.90;;;;;;5074545;28;20917;-73
2023/12/25 00:31:10;;;;;;;1.43;0.70;;;9.90;99.90;;;;;;5082312;28;20437;-72
2023/12/25 00:33:36;;;;;;;1.47;0.60;;;9.90;99.90;;;;;;5080339;28;20188;-72
2023/12/25 00:36:01;;;;;;;0.80;0.60;;;9.80;99.90;;;;;;5079213;28;20314;-71
2023/12/25 00:38:27;;;;;;;1.83;0.57;;;9.80;99.90;;;;;;5071694;28;20195;-72
2023/12/25 00:40:53;;;;;;;0.80;0.50;;;9.80;99.90;;;;;;5070949;28;20186;-72
2023/12/25 00:43:18;;;;;;;1.43;0.50;;;9.80;99.90;;;;;;5071175;28;20187;-72
2023/12/25 00:45:44;;;;;;;0.80;0.73;;;9.90;99.90;;;;;;5052413;28;20556;-72
2023/12/25 00:48:09;;;;;;;0.80;0.40;;;9.80;99.90;;;;;;5070570;28;20207;-72
2023/12/25 00:50:35;;;;;;;0.80;0.60;;;9.80;99.90;;;;;;5070547;28;20192;-72
2023/12/25 00:53:00;;;;;;;2.23;0.60;;;9.80;99.90;;;;;;5069098;28;20192;-72
2023/12/25 00:55:26;;;;;;;2.07;0.60;;;9.90;99.90;;;;;;5068472;28;20195;-72
2023/12/25 00:57:52;;;;;;;1.00;0.87;;;9.90;99.90;;;;;;5068576;28;20233;-72
2023/12/25 01:00:17;;;;;;;2.40;0.57;;;9.90;99.90;;;;;;5069449;28;20187;-72
2023/12/25 01:02:43;;;;;;;1.47;0.57;;;10.00;99.90;;;;;;5071201;28;20650;-72
2023/12/25 01:05:09;;;;;;;1.63;0.60;;;10.00;99.90;;;;;;5070977;28;20654;-73
2023/12/25 01:07:35;;;;;;;1.10;0.60;;;10.00;99.90;;;;;;5068501;28;20695;-72
2023/12/25 01:10:01;;;;;;;1.40;0.60;;;10.00;99.90;;;;;;5070981;28;20452;-72
2023/12/25 01:12:27;;;;;;;1.00;0.40;;;10.10;99.90;;;;;;5071077;28;20762;-72
2023/12/25 01:14:53;;;;;;;0.80;0.60;;;10.00;99.90;;;;;;5070509;28;20418;-71
2023/12/25 01:17:18;;;;;;;0.90;0.70;;;10.10;99.90;;;;;;5069252;28;20221;-72
2023/12/25 01:19:44;;;;;;;0.80;0.50;;;10.10;99.90;;;;;;5070685;28;20175;-72
2023/12/25 01:22:09;;;;;;;0.90;0.50;;;10.10;99.90;;;;;;5070497;28;20187;-73
2023/12/25 01:24:35;;;;;;;0.73;0.50;;;10.10;99.90;;;;;;5068832;28;20215;-73
2023/12/25 01:27:00;;;;;;;0.70;0.40;;;10.20;99.90;;;;;;5069933;28;20233;-72
2023/12/25 01:29:26;;;;;;;0.80;0.50;;;10.20;99.90;;;;;;5069868;28;20186;-73
2023/12/25 01:31:52;;;;;;;2.83;0.60;;;10.20;99.90;;;;;;5069814;28;20192;-73
2023/12/25 01:34:18;;;;;;;1.00;0.57;;;10.30;99.90;;;;;;5067903;28;20425;-73
2023/12/25 01:36:44;;;;;;;0.70;0.40;;;10.30;99.90;;;;;;5068237;28;20476;-72
2023/12/25 01:39:12;;;;;;;1.33;0.50;;;10.10;99.90;;;;;;5069590;28;20421;-72
2023/12/25 01:41:37;;;;;;;1.30;0.60;;;10.20;99.90;;;;;;5068022;28;20270;-72
2023/12/25 01:44:03;;;;;;;4.43;0.47;;;10.20;99.90;;;;;;5068086;28;20500;-72
2023/12/25 01:46:29;;;;;;;1.03;0.50;;;10.30;99.90;;;;;;5069485;28;20720;-72
2023/12/25 01:48:55;;;;;;;1.27;0.50;;;10.20;99.90;;;;;;5068007;28;20426;-72
2023/12/25 01:51:24;;;;;;;2.13;0.50;;;10.20;99.90;;;;;;5069198;28;20187;-72
2023/12/25 01:53:50;;;;;;;1.20;0.50;;;10.30;99.90;;;;;;5067822;28;20617;-72
2023/12/25 01:56:16;;;;;;;0.80;0.50;;;10.20;99.90;;;;;;5069135;28;20524;-73
2023/12/25 01:58:42;;;;;;;1.50;0.60;;;10.10;99.90;;;;;;5068962;28;20911;-72
2023/12/25 02:01:07;;;;;;;3.00;0.67;;;10.30;99.90;;;;;;5067643;28;20427;-72
2023/12/25 02:03:33;;;;;;;1.37;0.67;;;10.20;99.90;;;;;;5068832;28;20196;-72
2023/12/25 02:06:00;;;;;;;3.13;0.50;;;10.20;99.90;;;;;;5050611;28;20192;-72
2023/12/25 02:08:27;;;;;;;0.80;0.60;;;10.10;99.90;;;;;;5068791;28;20198;-71
2023/12/25 02:10:53;;;;;;;0.90;0.67;;;10.20;99.90;;;;;;5068742;28;20845;-73
2023/12/25 02:13:18;;;;;;;0.83;0.50;;;10.20;99.90;;;;;;5068878;28;20500;-73
2023/12/25 02:15:44;;;;;;;0.80;0.50;;;10.20;99.90;;;;;;5067523;28;20676;-73
2023/12/25 02:18:10;;;;;;;0.70;0.40;;;10.10;99.90;;;;;;5068990;28;20206;-73
2023/12/25 02:20:37;;;;;;;0.70;0.50;;;10.20;99.90;;;;;;5069180;28;20425;-72
2023/12/25 02:23:06;;;;;;;0.90;0.50;;;10.10;99.90;;;;;;5067653;28;20950;-72
2023/12/25 02:25:45;;;;;;;0.70;0.40;;;10.10;99.90;;;;;;5067547;28;20428;-73
2023/12/25 02:28:11;;;;;;;2.17;0.50;;;10.10;99.80;;;;;;5068636;28;20438;-73
2023/12/25 02:30:36;;;;;;;0.93;0.57;;;10.10;99.60;;;;;;5068531;28;21004;-72
2023/12/25 02:33:04;;;;;;;0.80;0.50;;;10.10;99.00;;;;;;5067048;28;20272;-72
2023/12/25 02:35:30;;;;;;;0.77;0.43;;;10.10;98.90;;;;;;5068706;28;20179;-72
2023/12/25 02:37:56;;;;;;;2.30;0.40;;;10.20;98.60;;;;;;5067097;28;20437;-71
2023/12/25 02:40:22;;;;;;;0.80;0.50;;;10.10;98.40;;;;;;5067173;28;20549;-72
2023/12/25 02:42:48;;;;;;;0.70;0.40;;;10.10;98.90;;;;;;5050598;28;20181;-71
2023/12/25 02:45:13;;;;;;;0.70;0.40;;;10.10;98.40;;;;;;5067261;28;20413;-72
2023/12/25 02:47:39;;;;;;;1.07;0.60;;;10.10;98.60;;;;;;5067102;28;20197;-73
2023/12/25 02:50:05;;;;;;;1.20;0.47;;;10.10;98.00;;;;;;5067222;28;20799;-74
2023/12/25 02:52:30;;;;;;;1.00;0.60;;;10.10;98.00;;;;;;5050511;28;20274;-72
2023/12/25 02:54:56;;;;;;;1.67;0.83;;;10.20;98.00;;;;;;5068547;28;20964;-71
2023/12/25 02:57:22;;;;;;;1.23;0.70;;;10.10;97.50;;;;;;5067221;28;20222;-73
2023/12/25 02:59:47;;;;;;;0.70;0.43;;;10.10;97.90;;;;;;5067079;28;20182;-72
2023/12/25 03:02:13;;;;;;;3.30;0.57;;;10.10;97.50;;;;;;5067284;28;20214;-73
2023/12/25 03:04:38;;;;;;;1.90;0.60;;;10.10;97.60;;;;;;5067385;28;20662;-71
2023/12/25 03:07:04;;;;;;;0.70;0.40;;;10.10;97.30;;;;;;5068652;28;20218;-71
2023/12/25 03:09:30;;;;;;;1.10;0.50;;;10.00;97.20;;;;;;5067536;28;20184;-73
2023/12/25 03:11:55;;;;;;;1.47;0.90;;;10.00;97.00;;;;;;5068859;28;20184;-72
2023/12/25 03:14:21;;;;;;;0.93;0.50;;;10.00;97.20;;;;;;5067574;28;20195;-72
2023/12/25 03:16:46;;;;;;;1.00;0.50;;;10.00;96.80;;;;;;5068461;28;20238;-72
2023/12/25 03:19:12;;;;;;;0.70;0.50;;;10.00;96.60;;;;;;5067319;28;20659;-73
2023/12/25 03:21:37;;;;;;;1.07;0.60;;;10.00;96.20;;;;;;5068387;28;20183;-71
2023/12/25 03:24:03;;;;;;;1.57;0.60;;;10.10;96.60;;;;;;5068997;28;20188;-73
2023/12/25 03:26:29;;;;;;;0.80;0.50;;;10.00;96.20;;;;;;5068117;28;20222;-73
2023/12/25 03:28:54;;;;;;;1.27;0.60;;;10.00;96.00;;;;;;5068192;28;20274;-71
2023/12/25 03:31:20;;;;;;;1.83;0.50;;;10.00;96.50;;;;;;5070327;28;20187;-72
2023/12/25 03:33:45;;;;;;;1.57;0.57;;;10.00;95.70;;;;;;5071672;28;20560;-72
2023/12/25 03:36:11;;;;;;;1.10;0.40;;;10.00;96.10;;;;;;5070124;28;20215;-72
2023/12/25 03:38:36;;;;;;;1.27;0.60;;;10.00;96.00;;;;;;5070393;28;20183;-72
2023/12/25 03:41:02;;;;;;;0.90;0.50;;;9.90;96.20;;;;;;5070212;28;20183;-72
2023/12/25 03:43:28;;;;;;;1.27;0.60;;;10.00;95.80;;;;;;5069988;28;20183;-72
2023/12/25 03:45:53;;;;;;;1.77;0.47;;;10.00;95.10;;;;;;5070026;28;20229;-72
2023/12/25 03:48:20;;;;;;;1.90;0.40;;;9.90;95.90;;;;;;5071430;28;20294;-72
2023/12/25 03:50:46;;;;;;;5.90;0.50;;;9.90;95.60;;;;;;5071558;28;20594;-72
2023/12/25 03:53:11;;;;;;;3.13;0.50;;;10.00;95.00;;;;;;5071529;28;20409;-72
2023/12/25 03:55:37;;;;;;;1.10;0.50;;;10.00;94.60;;;;;;5071237;28;20551;-72
2023/12/25 03:58:03;;;;;;;1.97;0.63;;;10.00;94.30;;;;;;5071756;28;20210;-73
2023/12/25 04:00:29;;;;;;;0.80;0.50;;;10.00;94.40;;;;;;5071315;28;20262;-73
2023/12/25 04:02:56;;;;;;;1.17;0.50;;;10.10;94.40;;;;;;5069870;28;20537;-73
2023/12/25 04:05:22;;;;;;;4.20;0.50;;;10.00;94.00;;;;;;5071559;28;20183;-73
2023/12/25 04:07:48;;;;;;;3.70;0.60;;;10.00;93.60;;;;;;5071699;28;20429;-72
2023/12/25 04:10:15;;;;;;;0.90;0.50;;;10.00;94.00;;;;;;5071381;28;20414;-73
2023/12/25 04:12:40;;;;;;;0.70;0.40;;;10.00;93.80;;;;;;5070343;28;20644;-73
2023/12/25 04:15:06;;;;;;;0.90;0.50;;;10.00;93.20;;;;;;5071441;28;20475;-72
2023/12/25 04:17:32;;;;;;;2.10;0.70;;;10.00;93.10;;;;;;5071303;28;20232;-74
2023/12/25 04:19:58;;;;;;;1.50;0.60;;;10.00;93.30;;;;;;5071382;28;20904;-73
2023/12/25 04:22:23;;;;;;;0.90;0.50;;;9.90;93.00;;;;;;5069353;28;20191;-73
2023/12/25 04:24:49;;;;;;;2.07;0.60;;;10.10;92.40;;;;;;5069647;28;20183;-73
2023/12/25 04:27:14;;;;;;;1.03;0.60;;;10.10;92.00;;;;;;5069361;28;20253;-73
2023/12/25 04:29:40;;;;;;;0.80;0.60;;;10.10;91.90;;;;;;5069575;28;20661;-73
2023/12/25 04:32:06;;;;;;;0.80;0.53;;;10.20;91.40;;;;;;5052761;28;20190;-73
2023/12/25 04:34:31;;;;;;;1.13;0.50;;;10.10;91.60;;;;;;5070803;28;20241;-74
2023/12/25 04:36:57;;;;;;;1.10;0.80;;;10.20;90.80;;;;;;5069267;28;20469;-73
2023/12/25 04:39:23;;;;;;;0.80;0.40;;;10.10;90.80;;;;;;5069028;28;20230;-74
2023/12/25 04:41:48;;;;;;;0.70;0.50;;;10.10;90.60;;;;;;5069103;28;20184;-72
2023/12/25 04:44:14;;;;;;;1.00;0.47;;;10.20;91.30;;;;;;5069087;28;20579;-73
2023/12/25 04:46:40;;;;;;;0.83;0.50;;;10.10;90.90;;;;;;5069168;28;20210;-73
2023/12/25 04:49:06;;;;;;;1.40;0.60;;;10.10;90.50;;;;;;5052750;28;20689;-73
2023/12/25 04:51:32;;;;;;;2.27;0.60;;;10.10;90.30;;;;;;5069192;28;20433;-72
2023/12/25 04:53:58;;;;;;;3.13;0.60;;;10.10;90.00;;;;;;5070454;28;20191;-72
2023/12/25 04:56:23;;;;;;;1.13;0.50;;;10.10;90.30;;;;;;5069089;28;20216;-73
2023/12/25 04:58:49;;;;;;;0.80;0.40;;;10.00;90.70;;;;;;5070631;28;20228;-72
2023/12/25 05:01:15;;;;;;;2.00;0.80;;;10.00;90.00;;;;;;5069273;28;20183;-71
2023/12/25 05:03:40;;;;;;;2.50;0.63;;;10.00;90.20;;;;;;5070582;28;20202;-72
2023/12/25 05:06:06;;;;;;;1.00;0.50;;;10.00;91.10;;;;;;5070648;28;20915;-72
2023/12/25 05:08:32;;;;;;;0.90;0.53;;;9.90;91.20;;;;;;5069113;28;20623;-73
2023/12/25 05:10:57;;;;;;;2.00;0.50;;;9.90;90.40;;;;;;5070745;28;20185;-73
2023/12/25 05:13:23;;;;;;;0.90;0.60;;;9.90;90.90;;;;;;5070315;28;20548;-72
2023/12/25 05:15:49;;;;;;;1.17;0.50;;;9.90;90.80;;;;;;5052120;28;20213;-73
2023/12/25 05:18:14;;;;;;;0.80;0.50;;;9.90;90.40;;;;;;5068357;28;20202;-73
2023/12/25 05:20:40;;;;;;;0.90;0.40;;;9.90;90.10;;;;;;5070171;28;20224;-73
2023/12/25 05:23:06;;;;;;;0.90;0.50;;;9.90;90.10;;;;;;5068810;28;20175;-74
2023/12/25 05:25:31;;;;;;;0.70;0.50;;;9.90;89.70;;;;;;5070116;28;20237;-73
2023/12/25 05:27:57;;;;;;;0.70;0.40;;;9.90;90.10;;;;;;5073037;28;20710;-72
2023/12/25 05:30:23;;;;;;;1.27;0.60;;;9.90;90.00;;;;;;5053901;28;20905;-73
2023/12/25 05:32:49;;;;;;;0.90;0.50;;;9.90;90.00;;;;;;5070803;28;20425;-71
2023/12/25 05:35:14;;;;;;;0.90;0.70;;;9.90;89.70;;;;;;5068673;28;20194;-71
2023/12/25 05:37:40;;;;;;;1.00;0.53;;;9.80;89.90;;;;;;5069773;28;20219;-73
2023/12/25 05:40:06;;;;;;;1.17;0.60;;;9.80;89.70;;;;;;5069788;28;20412;-73
2023/12/25 05:42:32;;;;;;;1.70;0.63;;;9.80;88.90;;;;;;5068043;28;20182;-74
2023/12/25 05:44:57;;;;;;;1.40;0.47;;;9.80;90.00;;;;;;5068001;28;20987;-73
2023/12/25 05:47:23;;;;;;;0.70;0.40;;;9.80;89.70;;;;;;5069073;28;20205;-72
2023/12/25 05:49:49;;;;;;;0.80;0.50;;;9.70;89.10;;;;;;5069426;28;20189;-73
2023/12/25 05:52:14;;;;;;;1.30;0.50;;;9.80;89.10;;;;;;5067879;28;20266;-73
2023/12/25 05:54:41;;;;;;;0.90;0.60;;;9.80;88.70;;;;;;5067427;28;20214;-73
2023/12/25 05:57:07;;;;;;;0.83;0.40;;;9.70;89.40;;;;;;5069310;28;20642;-72
2023/12/25 05:59:33;;;;;;;0.73;0.47;;;9.70;88.40;;;;;;5069507;28;20428;-73
2023/12/25 06:01:58;;;;;;;0.90;0.77;;;9.70;89.00;;;;;;5067843;28;20180;-72
2023/12/25 06:04:24;;;;;;;3.43;0.60;;;9.70;88.20;;;;;;5067638;28;20189;-73
2023/12/25 06:06:50;;;;;;;0.80;0.53;;;9.70;88.70;;;;;;5051577;28;20213;-73
2023/12/25 06:09:16;;;;;;;0.90;0.60;;;9.60;89.30;;;;;;5069193;28;20187;-73
2023/12/25 06:11:41;;;;;;;1.17;0.60;;;9.60;89.80;;;;;;5067885;28;20941;-73
2023/12/25 06:14:07;;;;;;;0.80;0.50;;;9.60;88.80;;;;;;5067639;28;20242;-72
2023/12/25 06:16:33;;;;;;;0.70;0.40;;;9.60;89.30;;;;;;5067342;28;20219;-72
2023/12/25 06:18:59;;;;;;;1.63;1.00;;;9.60;88.70;;;;;;5069046;28;20718;-72
2023/12/25 06:21:24;;;;;;;1.00;0.60;;;9.60;87.50;;;;;;5067561;28;20414;-72
2023/12/25 06:23:50;;;;;;;0.93;0.67;;;9.60;89.40;;;;;;5068945;28;20649;-71
2023/12/25 06:26:16;;;;;;;1.33;0.60;;;9.50;88.30;;;;;;5067260;28;20467;-71
2023/12/25 06:28:41;;;;;;;0.87;0.53;;;9.50;88.60;;;;;;5067573;28;20198;-72
2023/12/25 06:31:08;;;;;;;0.90;0.50;;;9.50;89.30;;;;;;5050611;28;20210;-71
2023/12/25 06:33:33;;;;;;;1.00;0.43;;;9.50;88.10;;;;;;5067314;28;20286;-72
2023/12/25 06:35:59;;;;;;;1.00;0.50;;;9.50;87.40;;;;;;5067291;28;20556;-72
2023/12/25 06:38:24;;;;;;;1.10;0.70;;;9.50;88.10;;;;;;5069070;28;20187;-72
2023/12/25 06:40:50;;;;;;;0.80;0.50;;;9.50;87.80;;;;;;5067542;28;20187;-72
2023/12/25 06:43:15;;;;;;;0.90;0.50;;;9.50;87.30;;;;;;5067161;28;20202;-72
2023/12/25 06:45:41;;;;;;;0.80;0.50;;;9.50;87.00;;;;;;5068888;28;20186;-72
2023/12/25 06:48:07;;;;;;;0.70;0.40;;;9.50;89.00;;;;;;5051327;28;20209;-72
2023/12/25 06:50:32;;;;;;;0.80;0.50;;;9.40;88.10;;;;;;5067528;28;20180;-73
2023/12/25 06:52:58;;;;;;;0.80;0.60;;;9.40;87.80;;;;;;5067659;28;20210;-72
2023/12/25 06:55:24;;;;;;;0.90;0.50;;;9.50;87.10;;;;;;5067538;28;20191;-73
2023/12/25 06:57:50;;;;;;;0.87;0.57;;;9.50;87.10;;;;;;5067874;28;20214;-72
2023/12/25 07:00:16;;;;;;;0.80;0.50;;;9.50;86.80;;;;;;5069093;28;20441;-72
2023/12/25 07:02:41;;;;;;;1.00;0.60;;;9.40;87.50;;;;;;5069257;28;20964;-73
2023/12/25 07:05:07;;;;;;;1.50;0.47;;;9.40;87.60;;;;;;5067901;28;20652;-73
2023/12/25 07:07:33;;;;;;;0.70;0.50;;;9.40;86.30;;;;;;5073129;28;20206;-73
2023/12/25 07:09:58;;;;;;;0.77;0.60;;;9.40;86.90;;;;;;5071575;28;20440;-73
2023/12/25 07:12:24;;;;;;;1.00;0.60;;;9.40;86.40;;;;;;5073136;28;20186;-72
2023/12/25 07:14:53;;;;;;;1.30;0.50;;;9.40;86.00;;;;;;5072974;28;20595;-72
2023/12/25 07:17:19;;;;;;;1.20;0.80;;;9.40;85.10;;;;;;5072649;28;20232;-72
2023/12/25 07:19:44;;;;;;;0.90;0.50;;;9.40;86.60;;;;;;5071358;28;20421;-72
2023/12/25 07:22:13;;;;;;;0.90;0.70;;;9.40;85.10;;;;;;5072588;28;20194;-72
2023/12/25 07:24:39;;;;;;;1.77;0.60;;;9.40;84.50;;;;;;5070930;28;20190;-71
2023/12/25 07:27:05;;;;;;;1.40;0.80;;;9.40;84.70;;;;;;5072378;28;20940;-71
2023/12/25 07:29:30;;;;;;;2.60;0.80;;;9.40;83.30;;;;;;5071245;28;20218;-71
2023/12/25 07:31:57;;;;;;;0.97;0.47;;;9.40;83.00;;;;;;5071234;28;20444;-73
2023/12/25 07:34:22;;;;;;;1.47;0.50;;;9.40;83.50;;;;;;5071090;28;20183;-72
2023/12/25 07:36:48;;;;;;;0.80;0.50;;;9.40;82.80;;;;;;5070969;28;20465;-73
2023/12/25 07:39:14;;;;;;;0.70;0.50;;;9.40;83.20;;;;;;5070851;28;20581;-71
2023/12/25 07:41:45;;;;;;;2.10;0.70;;;9.40;81.60;;;;;;5072595;28;20661;-72
2023/12/25 07:44:15;;;;;;;0.70;0.50;;;9.40;81.90;;;;;;5072365;28;20423;-72
2023/12/25 07:46:41;;;;;;;1.77;0.60;;;9.40;81.90;;;;;;5072361;28;21429;-72
2023/12/25 07:49:07;;;;;;;1.23;0.70;;;9.40;82.00;;;;;;5072380;28;20515;-72
2023/12/25 07:51:33;;;;;;;0.93;0.67;;;9.50;80.80;;;;;;5071125;28;20199;-71
2023/12/25 07:53:58;;;;;;;0.70;0.50;;;9.40;80.70;;;;;;5073958;28;20215;-73
2023/12/25 07:56:25;;;;;;;0.80;0.60;;;9.40;81.20;;;;;;5070828;28;20214;-73
2023/12/25 07:58:50;;;;;;;1.00;0.60;;;9.40;80.20;;;;;;5072491;28;21004;-71
2023/12/25 08:01:19;;;;;;;1.07;0.80;;;9.40;81.30;;;;;;5071790;28;20508;-73
2023/12/25 08:03:45;;;;;;;0.90;0.53;;;9.40;80.80;;;;;;5071674;28;20175;-73
2023/12/25 08:06:11;;;;;;;1.10;0.60;;;9.50;80.40;;;;;;5053440;28;20444;-72
2023/12/25 08:08:37;;;;;;;0.83;0.57;;;9.50;80.80;;;;;;5070214;28;20715;-72
2023/12/25 08:11:03;;;;;;;1.10;0.57;;;9.50;80.70;;;;;;5071639;28;20432;-72
2023/12/25 08:13:28;;;;;;;1.43;0.67;;;9.50;79.60;;;;;;5071327;28;20181;-73
2023/12/25 08:15:54;;;;;;;0.90;0.60;;;9.60;81.60;;;;;;5069394;28;20484;-72
2023/12/25 08:18:19;;;;;;;0.87;0.50;;;9.60;82.10;;;;;;5069785;28;20254;-72
2023/12/25 08:20:45;;;;;;;1.20;0.60;;;9.50;80.00;;;;;;5069798;28;20183;-74
2023/12/25 08:23:11;;;;;;;2.50;0.93;;;9.60;80.40;;;;;;5053089;28;20279;-72
2023/12/25 08:25:37;;;;;;;0.90;0.70;;;9.60;79.50;;;;;;5071086;28;20179;-72
2023/12/25 08:28:03;;;;;;;3.77;0.83;;;9.60;79.40;;;;;;5069536;28;20883;-72
2023/12/25 08:30:29;;;;;;;0.90;0.60;;;9.70;79.80;;;;;;5069570;28;20448;-72
2023/12/25 08:32:55;;;;;;;1.10;0.90;;;9.70;79.90;;;;;;5069552;28;20487;-72
2023/12/25 08:35:20;;;;;;;1.67;0.70;;;9.70;79.10;;;;;;5069401;28;20730;-72
2023/12/25 08:37:46;;;;;;;0.73;0.50;;;9.70;79.10;;;;;;5069153;28;20240;-72
2023/12/25 08:40:11;;;;;;;0.77;0.60;;;9.70;80.40;;;;;;5070774;28;20180;-72
2023/12/25 08:42:37;;;;;;;1.27;0.70;;;9.80;79.50;;;;;;5070655;28;20179;-72
2023/12/25 08:45:06;;;;;;;1.03;0.90;;;9.80;79.70;;;;;;5070818;28;20179;-72
2023/12/25 08:47:31;;;;;;;1.20;0.90;;;9.80;79.70;;;;;;5070417;28;20556;-71
2023/12/25 08:49:57;;;;;;;1.53;0.70;;;9.90;80.40;;;;;;5070596;28;20422;-72
2023/12/25 08:52:24;;;;;;;1.10;0.90;;;9.90;81.80;;;;;;5069060;28;20557;-72
2023/12/25 08:54:49;;;;;;;0.80;0.60;;;9.90;80.20;;;;;;5068731;28;20184;-73
2023/12/25 08:57:15;;;;;;;0.90;0.60;;;9.90;81.10;;;;;;5068742;28;20468;-72
2023/12/25 08:59:40;;;;;;;0.80;0.60;;;9.80;80.10;;;;;;5070292;28;20268;-71
2023/12/25 09:02:06;;;;;;;2.13;0.80;;;9.90;80.40;;;;;;5070321;28;20322;-73
2023/12/25 09:04:32;;;;;;;3.23;0.60;;;9.90;82.30;;;;;;5070475;28;20187;-72
2023/12/25 09:06:58;;;;;;;0.87;0.67;;;9.90;81.40;;;;;;5070173;28;20282;-73
2023/12/25 09:09:24;;;;;;;0.83;0.50;;;9.80;81.10;;;;;;5070219;28;20675;-73
2023/12/25 09:11:50;;;;;;;0.90;0.70;;;9.80;82.00;;;;;;5068736;28;20421;-72
2023/12/25 09:14:15;;;;;;;1.37;0.80;;;9.70;81.30;;;;;;5070113;28;20924;-72
2023/12/25 09:16:41;;;;;;;0.80;0.60;;;9.80;81.80;;;;;;5069797;28;20215;-72
2023/12/25 09:19:07;;;;;;;3.37;0.87;;;9.90;82.00;;;;;;5068354;28;20187;-72
2023/12/25 09:21:39;;;;;;;0.80;0.60;;;9.90;81.40;;;;;;5051617;28;20180;-72
2023/12/25 09:24:05;;;;;;;1.10;0.70;;;10.00;80.70;;;;;;5068232;28;20624;-72
2023/12/25 09:26:31;;;;;;;1.10;0.60;;;10.20;81.20;;;;;;5069993;28;20472;-71
2023/12/25 09:28:57;;;;;;;0.90;0.60;;;10.20;81.00;;;;;;5069339;28;21016;-72
2023/12/25 09:31:23;;;;;;;1.73;0.70;;;10.30;81.10;;;;;;5070038;28;20184;-71
2023/12/25 09:33:48;;;;;;;2.80;0.50;;;10.30;82.20;;;;;;5068207;28;20798;-72
2023/12/25 09:36:14;;;;;;;0.90;0.60;;;10.30;81.70;;;;;;5069520;28;20556;-72
2023/12/25 09:38:40;;;;;;;1.03;0.60;;;10.30;81.70;;;;;;5069709;28;20222;-71
2023/12/25 09:41:14;;;;;;;1.00;0.70;;;10.40;83.30;;;;;;5069552;28;20742;-73
2023/12/25 09:43:44;;;;;;;1.00;0.60;;;10.40;82.50;;;;;;5069095;28;20875;-73
2023/12/25 09:46:14;;;;;;;0.90;0.53;;;10.40;82.80;;;;;;5068957;28;20414;-73
2023/12/25 09:48:40;;;;;;;0.80;0.70;;;10.30;84.00;;;;;;5067710;28;20479;-72
2023/12/25 09:51:07;;;;;;;1.93;0.60;;;10.20;84.70;;;;;;5069194;28;20426;-72
2023/12/25 09:53:33;;;;;;;1.50;0.80;;;10.10;85.60;;;;;;5067354;28;20509;-72
2023/12/25 09:56:01;;;;;;;3.20;0.73;;;10.10;86.20;;;;;;5066844;28;20831;-72
2023/12/25 09:58:27;;;;;;;0.83;0.50;;;10.20;87.10;;;;;;5068671;28;20418;-71
2023/12/25 10:00:56;;;;;;;2.07;1.27;;;10.10;86.20;;;;;;5068096;28;20410;-72
2023/12/25 10:03:26;;;;;;;0.77;0.60;;;10.20;87.20;;;;;;5066521;28;20421;-71
2023/12/25 10:05:51;;;;;;;0.80;0.70;;;10.20;88.30;;;;;;5068934;28;20431;-71
2023/12/25 10:08:17;;;;;;;1.03;0.53;;;10.30;89.40;;;;;;5066392;28;20441;-71
2023/12/25 10:10:45;;;;;;;0.80;0.70;;;10.40;88.30;;;;;;5067790;28;20661;-72
2023/12/25 10:13:11;;;;;;;1.37;0.90;;;10.80;90.10;;;;;;5067833;28;20548;-74
2023/12/25 10:15:37;;;;;;;1.30;0.70;;;11.00;87.80;;;;;;5066293;28;20427;-72
2023/12/25 10:18:05;;;;;;;0.90;0.70;;;11.20;88.00;;;;;;5066348;28;20453;-72
2023/12/25 10:20:31;;;;;;;1.30;0.90;;;11.90;87.50;;;;;;5067720;28;20985;-72
2023/12/25 10:22:57;;;;;;;1.10;0.60;;;12.70;87.00;;;;;;5067339;28;20439;-73
2023/12/25 10:25:30;;;;;;;1.87;1.00;;;12.60;85.60;;;;;;5071490;28;20442;-73
2023/12/25 10:28:09;;;;;;;2.60;0.70;;;13.10;85.10;;;;;;5072168;28;20447;-73
2023/12/25 10:30:34;;;;;;;1.73;0.93;;;13.70;86.40;;;;;;5069762;28;20508;-73
2023/12/25 10:33:14;;;;;;;1.53;0.70;;;14.30;81.70;;;;;;5065752;28;20449;-75
2023/12/25 10:35:41;;;;;;;1.93;0.90;;;14.20;81.00;;;;;;5067424;28;20273;-71
2023/12/25 10:38:07;;;;;;;3.00;0.70;;;15.30;83.80;;;;;;5067217;28;20456;-73
2023/12/25 10:40:33;;;;;;;1.00;0.60;;;15.10;79.10;;;;;;5067235;28;20459;-73
2023/12/25 10:42:59;;;;;;;1.60;0.70;;;14.80;81.50;;;;;;5067143;28;20422;-73
2023/12/25 10:45:30;;;;;;;1.00;0.60;;;14.20;81.30;;;;;;5067388;28;20413;-72
2023/12/25 10:48:03;;;;;;;1.30;0.60;;;14.50;81.60;;;;;;5067283;28;20195;-72
2023/12/25 10:50:39;;;;;;;0.90;0.60;;;15.20;83.60;;;;;;5065663;28;20994;-73
2023/12/25 10:53:05;;;;;;;0.80;0.50;;;15.40;83.10;;;;;;5067308;28;20453;-72
2023/12/25 10:55:41;;;;;;;1.40;0.60;;;16.80;83.40;;;;;;5067463;28;20439;-73
2023/12/25 10:58:09;;;;;;;1.37;0.77;;;16.60;77.00;;;;;;5067241;28;20444;-72
2023/12/25 11:00:37;;;;;;;1.07;0.60;;;17.20;78.60;;;;;;5067230;28;20409;-74
2023/12/25 11:03:03;;;;;;;3.37;0.70;;;17.20;78.80;;;;;;5066929;28;20912;-72
2023/12/25 11:05:33;;;;;;;3.57;0.83;;;17.40;76.80;;;;;;5065721;28;20573;-73
2023/12/25 11:07:58;;;;;;;1.67;1.03;;;18.40;77.10;;;;;;5065284;28;20951;-73
2023/12/25 11:10:27;;;;;;;1.83;0.67;;;18.60;76.60;;;;;;5067142;28;20417;-73
2023/12/25 11:12:54;;;;;;;0.90;0.80;;;19.20;75.50;;;;;;5048983;28;20241;-72
2023/12/25 11:15:20;;;;;;;1.10;0.77;;;17.20;75.40;;;;;;5066935;28;20420;-74
2023/12/25 11:17:46;;;;;;;1.47;0.60;;;17.90;76.00;;;;;;5065460;28;20846;-72
2023/12/25 11:20:11;;;;;;;1.30;0.83;;;18.70;75.80;;;;;;5066983;28;20191;-72
2023/12/25 11:22:40;;;;;;;2.80;0.60;;;18.50;75.60;;;;;;5065547;28;20264;-72
2023/12/25 11:25:13;;;;;;;1.60;0.90;;;18.40;73.90;;;;;;5066897;28;20652;-72
2023/12/25 11:27:38;;;;;;;1.60;0.60;;;17.80;75.90;;;;;;5066784;28;20484;-73
2023/12/25 11:30:07;;;;;;;0.80;0.60;;;17.00;75.80;;;;;;5066916;28;20459;-72
2023/12/25 11:32:36;;;;;;;1.33;0.63;;;16.00;77.00;;;;;;5067271;28;20177;-72
2023/12/25 11:35:02;;;;;;;1.33;0.70;;;15.90;78.40;;;;;;5065721;28;20532;-73
2023/12/25 11:37:28;;;;;;;3.27;0.80;;;14.90;79.70;;;;;;5066702;28;20469;-73
2023/12/25 11:39:59;;;;;;;1.83;0.60;;;14.20;81.00;;;;;;5065300;28;20946;-73
2023/12/25 11:42:29;;;;;;;1.73;1.63;;;14.10;82.50;;;;;;5067023;28;20504;-73
2023/12/25 11:44:56;;;;;;;6.43;5.83;;;13.90;81.70;;;;;;5066763;28;20454;-72
2023/12/25 11:47:29;;;;;;;2.60;1.40;;;13.70;83.70;;;;;;5065088;28;20446;-72
2023/12/25 11:49:56;;;;;;;1.53;0.70;;;13.20;85.90;;;;;;5066712;28;20413;-72
2023/12/25 11:52:46;;;;;;;1.40;0.90;;;12.70;88.00;;;;;;5069181;28;20427;-71
2023/12/25 11:55:19;;;;;;;1.40;0.60;;;12.70;90.30;;;;;;5070048;28;21008;-72
2023/12/25 11:57:45;;;;;;;1.10;0.70;;;12.80;90.80;;;;;;5070409;28;20477;-71
2023/12/25 12:00:37;;;;;;;5.17;0.90;;;12.90;90.80;;;;;;5070312;28;20416;-72
2023/12/25 12:03:02;;;;;;;3.80;1.43;;;13.10;90.90;;;;;;5065968;28;20195;-72
2023/12/25 12:05:28;;;;;;;8.53;0.70;;;12.70;91.40;;;;;;5070673;28;20788;-72
2023/12/25 12:07:54;;;;;;;1.00;0.70;;;12.40;91.90;;;;;;5069089;28;20202;-72
2023/12/25 12:10:19;;;;;;;1.17;0.60;;;12.10;92.80;;;;;;5070581;28;20191;-72
2023/12/25 12:12:45;;;;;;;1.00;0.60;;;11.90;94.70;;;;;;5069039;28;20186;-72
2023/12/25 12:15:11;;;;;;;1.67;0.73;;;11.60;96.00;;;;;;5068889;28;20222;-72
2023/12/25 12:17:36;;;;;;;1.20;0.60;;;11.50;98.30;;;;;;5068990;28;20221;-72
2023/12/25 12:20:04;;;;;;;1.77;1.50;;;11.30;99.90;;;;;;5070091;28;20799;-73
2023/12/25 12:22:31;;;;;;;15.13;9.70;;;11.50;99.90;;;;;;5070484;28;20281;-73
2023/12/25 12:25:18;;;;;;;1.90;0.80;;;11.30;99.90;;;;;;5069926;28;20423;-73
2023/12/25 12:27:43;;;;;;;8.00;6.27;;;11.40;99.90;;;;;;5069722;28;21003;-72
2023/12/25 12:30:09;;;;;;;4.90;3.70;;;11.50;99.90;;;;;;5068149;28;20432;-72
2023/12/25 12:32:36;;;;;;;1.70;0.80;;;11.40;99.90;;;;;;5069957;28;20189;-73
2023/12/25 12:35:07;;;;;;;1.30;1.20;;;11.30;99.90;;;;;;5068343;28;20501;-71
2023/12/25 12:37:34;;;;;;;1.90;1.80;;;11.30;99.90;;;;;;5069605;28;20473;-71
2023/12/25 12:40:01;;;;;;;3.33;1.20;;;11.30;99.90;;;;;;5069639;28;20423;-71
2023/12/25 12:42:27;;;;;;;1.10;0.70;;;11.40;99.90;;;;;;5069304;28;20419;-72
2023/12/25 12:44:55;;;;;;;1.13;1.00;;;11.40;99.90;;;;;;5067722;28;20429;-73
2023/12/25 12:47:21;;;;;;;0.80;0.50;;;11.50;99.90;;;;;;5069476;28;20240;-72